This is the latest recevied weather packets stored in our database for station/object KC3ROS. If no packets are shown the sender has not sent any weather packets the latest 10 day(s).
| Time | Temp. | Humidity | Pressure | Rain* | Wind** | Luminosity | Snow |
|---|---|---|---|---|---|---|---|
| 1777415601 | 23.89° C | 56% | 1011.1 hPa | 0 mm | - | 153 W/m² | - |
| 1777415297 | 22.78° C | 59% | 1011.4 hPa | 0 mm | - | 183 W/m² | - |
| 1777414991 | 22.78° C | 59% | 1011.5 hPa | 0 mm | - | 100 W/m² | - |
| 1777414686 | 23.33° C | 58% | 1011.5 hPa | 0 mm | - | 143 W/m² | - |
| 1777414382 | 22.78° C | 59% | 1011.6 hPa | 0 mm | - | 117 W/m² | - |
| 1777414081 | 22.78° C | 60% | 1011.6 hPa | 0 mm | - | 203 W/m² | - |
| 1777413777 | 22.22° C | 61% | 1011.6 hPa | 0 mm | - | 91 W/m² | - |
| 1777413472 | 21.67° C | 64% | 1011.5 hPa | 0 mm | - | 302 W/m² | - |
| 1777413169 | 21.67° C | 67% | 1011.4 hPa | 0 mm | - | 92 W/m² | - |
| 1777412864 | 21.67° C | 66% | 1011.6 hPa | 0 mm | - | 82 W/m² | - |
| 1777412564 | 22.22° C | 65% | 1011.4 hPa | 0 mm | - | 141 W/m² | - |
| 1777412261 | 21.67° C | 70% | 1011.6 hPa | 0 mm | - | 122 W/m² | - |
| 1777411958 | 22.22° C | 66% | 1011.5 hPa | 0 mm | - | 97 W/m² | - |
| 1777411656 | 22.78° C | 64% | 1011.7 hPa | 0 mm | - | 117 W/m² | - |
| 1777411351 | 21.67° C | 68% | 1011.4 hPa | 0 mm | - | 146 W/m² | - |
| 1777411050 | 22.22° C | 69% | 1011.4 hPa | 0 mm | - | 149 W/m² | - |
| 1777410746 | 21.11° C | 69% | 1011.4 hPa | 0 mm | - | 125 W/m² | - |
| 1777410440 | 21.11° C | 70% | 1011.5 hPa | 0 mm | - | 108 W/m² | - |
| 1777410138 | 21.67° C | 68% | 1011.6 hPa | 0 mm | - | 89 W/m² | - |
| 1777409833 | 22.22° C | 67% | 1011.6 hPa | 0 mm | - | 190 W/m² | - |
| 1777409529 | 20.56° C | 70% | 1011.7 hPa | 0 mm | - | 597 W/m² | - |
| 1777409225 | 21.11° C | 73% | 1011.7 hPa | 0 mm | - | 153 W/m² | - |
| 1777408921 | 21.11° C | 73% | 1011.9 hPa | 0 mm | - | 176 W/m² | - |
| 1777408618 | 21.11° C | 70% | 1011.7 hPa | 0 mm | - | 169 W/m² | - |
| 1777408314 | 21.11° C | 72% | 1011.6 hPa | 0 mm | - | 241 W/m² | - |
* Rain latest hour (hover to see other rain measurements)
** Current wind speed in m/s (hover to see current wind gust speed)